sensor_id;sensor_type;location;lat;lon;timestamp;temperature;humidity
8539;DHT22;4307;53.868;11.680;2023-09-30T00:01:40;14.70;99.90
8539;DHT22;4307;53.868;11.680;2023-09-30T00:04:07;14.70;99.90
8539;DHT22;4307;53.868;11.680;2023-09-30T00:06:35;14.60;99.90
8539;DHT22;4307;53.868;11.680;2023-09-30T00:09:02;14.60;99.90
8539;DHT22;4307;53.868;11.680;2023-09-30T00:11:30;14.50;99.90
8539;DHT22;4307;53.868;11.680;2023-09-30T00:13:57;14.50;99.90
8539;DHT22;4307;53.868;11.680;2023-09-30T00:16:24;14.40;99.90
8539;DHT22;4307;53.868;11.680;2023-09-30T00:18:50;14.30;99.90
8539;DHT22;4307;53.868;11.680;2023-09-30T00:21:18;14.30;99.90
8539;DHT22;4307;53.868;11.680;2023-09-30T00:23:46;14.30;99.90
8539;DHT22;4307;53.868;11.680;2023-09-30T00:26:13;14.20;99.90
8539;DHT22;4307;53.868;11.680;2023-09-30T00:28:40;14.20;99.90
8539;DHT22;4307;53.868;11.680;2023-09-30T00:31:07;14.10;99.90
8539;DHT22;4307;53.868;11.680;2023-09-30T00:33:35;14.10;99.90
8539;DHT22;4307;53.868;11.680;2023-09-30T00:36:06;14.10;99.90
8539;DHT22;4307;53.868;11.680;2023-09-30T00:38:33;14.00;99.90
8539;DHT22;4307;53.868;11.680;2023-09-30T00:41:01;14.00;99.90
8539;DHT22;4307;53.868;11.680;2023-09-30T00:43:28;14.00;99.90
8539;DHT22;4307;53.868;11.680;2023-09-30T00:46:01;13.90;99.90
8539;DHT22;4307;53.868;11.680;2023-09-30T00:48:28;13.90;99.90
8539;DHT22;4307;53.868;11.680;2023-09-30T00:50:55;13.90;99.90
8539;DHT22;4307;53.868;11.680;2023-09-30T00:53:22;13.80;99.90
8539;DHT22;4307;53.868;11.680;2023-09-30T00:55:50;13.80;99.90
8539;DHT22;4307;53.868;11.680;2023-09-30T00:58:18;13.80;99.90
8539;DHT22;4307;53.868;11.680;2023-09-30T01:00:45;13.80;99.90
8539;DHT22;4307;53.868;11.680;2023-09-30T01:03:12;13.70;99.90
8539;DHT22;4307;53.868;11.680;2023-09-30T01:05:40;13.70;99.90
8539;DHT22;4307;53.868;11.680;2023-09-30T01:08:06;13.70;99.90
8539;DHT22;4307;53.868;11.680;2023-09-30T01:10:34;13.60;99.90
8539;DHT22;4307;53.868;11.680;2023-09-30T01:13:00;13.60;99.90
8539;DHT22;4307;53.868;11.680;2023-09-30T01:15:30;13.60;99.90
8539;DHT22;4307;53.868;11.680;2023-09-30T01:17:56;13.60;99.90
8539;DHT22;4307;53.868;11.680;2023-09-30T01:20:24;13.60;99.90
8539;DHT22;4307;53.868;11.680;2023-09-30T01:22:53;13.60;99.90
8539;DHT22;4307;53.868;11.680;2023-09-30T01:25:21;13.50;99.90
8539;DHT22;4307;53.868;11.680;2023-09-30T01:27:47;13.50;99.90
8539;DHT22;4307;53.868;11.680;2023-09-30T01:30:16;13.50;99.90
8539;DHT22;4307;53.868;11.680;2023-09-30T01:32:43;13.50;99.90
8539;DHT22;4307;53.868;11.680;2023-09-30T01:35:10;13.50;99.90
8539;DHT22;4307;53.868;11.680;2023-09-30T01:37:37;13.50;99.90
8539;DHT22;4307;53.868;11.680;2023-09-30T01:40:06;13.50;99.90
8539;DHT22;4307;53.868;11.680;2023-09-30T01:42:37;13.40;99.90
8539;DHT22;4307;53.868;11.680;2023-09-30T01:45:04;13.40;99.90
8539;DHT22;4307;53.868;11.680;2023-09-30T01:47:31;13.40;99.90
8539;DHT22;4307;53.868;11.680;2023-09-30T01:49:58;13.40;99.90
8539;DHT22;4307;53.868;11.680;2023-09-30T01:52:25;13.40;99.90
8539;DHT22;4307;53.868;11.680;2023-09-30T01:54:51;13.40;99.90
8539;DHT22;4307;53.868;11.680;2023-09-30T01:57:20;13.40;99.90
8539;DHT22;4307;53.868;11.680;2023-09-30T01:59:47;13.30;99.90
8539;DHT22;4307;53.868;11.680;2023-09-30T02:02:14;13.30;99.90
8539;DHT22;4307;53.868;11.680;2023-09-30T02:04:42;13.30;99.90
8539;DHT22;4307;53.868;11.680;2023-09-30T02:07:09;13.30;99.90
8539;DHT22;4307;53.868;11.680;2023-09-30T02:09:36;13.30;99.90
8539;DHT22;4307;53.868;11.680;2023-09-30T02:12:03;13.30;99.90
8539;DHT22;4307;53.868;11.680;2023-09-30T02:14:31;13.30;99.90
8539;DHT22;4307;53.868;11.680;2023-09-30T02:16:58;13.20;99.90
8539;DHT22;4307;53.868;11.680;2023-09-30T02:19:25;13.20;99.90
8539;DHT22;4307;53.868;11.680;2023-09-30T02:21:52;13.20;99.90
8539;DHT22;4307;53.868;11.680;2023-09-30T02:24:19;13.20;99.90
8539;DHT22;4307;53.868;11.680;2023-09-30T02:26:48;13.20;99.90
8539;DHT22;4307;53.868;11.680;2023-09-30T02:29:15;13.20;99.90
8539;DHT22;4307;53.868;11.680;2023-09-30T02:31:43;13.10;99.90
8539;DHT22;4307;53.868;11.680;2023-09-30T02:34:09;13.10;99.90
8539;DHT22;4307;53.868;11.680;2023-09-30T02:36:36;13.10;99.90
8539;DHT22;4307;53.868;11.680;2023-09-30T02:39:04;13.00;99.90
8539;DHT22;4307;53.868;11.680;2023-09-30T02:41:34;13.10;99.90
8539;DHT22;4307;53.868;11.680;2023-09-30T02:44:00;13.00;99.90
8539;DHT22;4307;53.868;11.680;2023-09-30T02:46:27;13.00;99.90
8539;DHT22;4307;53.868;11.680;2023-09-30T02:48:55;13.00;99.90
8539;DHT22;4307;53.868;11.680;2023-09-30T02:51:22;13.00;99.90
8539;DHT22;4307;53.868;11.680;2023-09-30T02:53:49;13.00;99.90
8539;DHT22;4307;53.868;11.680;2023-09-30T02:56:16;12.90;99.90
8539;DHT22;4307;53.868;11.680;2023-09-30T02:58:45;12.90;99.90
8539;DHT22;4307;53.868;11.680;2023-09-30T03:01:14;12.90;99.90
8539;DHT22;4307;53.868;11.680;2023-09-30T03:03:42;12.90;99.90
8539;DHT22;4307;53.868;11.680;2023-09-30T03:06:10;12.90;99.90
8539;DHT22;4307;53.868;11.680;2023-09-30T03:08:37;12.90;99.90
8539;DHT22;4307;53.868;11.680;2023-09-30T03:11:04;12.90;99.90
8539;DHT22;4307;53.868;11.680;2023-09-30T03:13:31;12.90;99.90
8539;DHT22;4307;53.868;11.680;2023-09-30T03:15:57;12.80;99.90
8539;DHT22;4307;53.868;11.680;2023-09-30T03:18:24;12.80;99.90
8539;DHT22;4307;53.868;11.680;2023-09-30T03:20:52;12.80;99.90
8539;DHT22;4307;53.868;11.680;2023-09-30T03:23:23;12.80;99.90
8539;DHT22;4307;53.868;11.680;2023-09-30T03:25:55;12.90;99.90
8539;DHT22;4307;53.868;11.680;2023-09-30T03:28:23;12.90;99.90
8539;DHT22;4307;53.868;11.680;2023-09-30T03:30:49;12.90;99.90
8539;DHT22;4307;53.868;11.680;2023-09-30T03:33:16;12.90;99.90
8539;DHT22;4307;53.868;11.680;2023-09-30T03:35:43;12.90;99.90
8539;DHT22;4307;53.868;11.680;2023-09-30T03:38:10;12.90;99.90
8539;DHT22;4307;53.868;11.680;2023-09-30T03:40:39;12.90;99.90
8539;DHT22;4307;53.868;11.680;2023-09-30T03:43:10;12.90;99.90
8539;DHT22;4307;53.868;11.680;2023-09-30T03:45:36;12.90;99.90
8539;DHT22;4307;53.868;11.680;2023-09-30T03:48:05;12.90;99.90
8539;DHT22;4307;53.868;11.680;2023-09-30T03:50:31;12.90;99.90
8539;DHT22;4307;53.868;11.680;2023-09-30T03:53:01;12.90;99.90
8539;DHT22;4307;53.868;11.680;2023-09-30T03:55:28;12.80;99.90
8539;DHT22;4307;53.868;11.680;2023-09-30T03:57:57;12.90;99.90
8539;DHT22;4307;53.868;11.680;2023-09-30T04:00:23;12.90;99.90
8539;DHT22;4307;53.868;11.680;2023-09-30T04:02:50;12.80;99.90
8539;DHT22;4307;53.868;11.680;2023-09-30T04:05:20;12.80;99.90
8539;DHT22;4307;53.868;11.680;2023-09-30T04:07:51;12.90;99.90
8539;DHT22;4307;53.868;11.680;2023-09-30T04:10:18;12.80;99.90
8539;DHT22;4307;53.868;11.680;2023-09-30T04:12:45;12.90;99.90
8539;DHT22;4307;53.868;11.680;2023-09-30T04:15:13;12.80;99.90
8539;DHT22;4307;53.868;11.680;2023-09-30T04:17:39;12.80;99.90
8539;DHT22;4307;53.868;11.680;2023-09-30T04:20:07;12.80;99.90
8539;DHT22;4307;53.868;11.680;2023-09-30T04:22:36;12.80;99.90
8539;DHT22;4307;53.868;11.680;2023-09-30T04:25:03;12.80;99.90
8539;DHT22;4307;53.868;11.680;2023-09-30T04:27:31;12.80;99.90
8539;DHT22;4307;53.868;11.680;2023-09-30T04:29:58;12.80;99.90
8539;DHT22;4307;53.868;11.680;2023-09-30T04:32:27;12.80;99.90
8539;DHT22;4307;53.868;11.680;2023-09-30T04:34:54;12.80;99.90
8539;DHT22;4307;53.868;11.680;2023-09-30T04:37:20;12.80;99.90
8539;DHT22;4307;53.868;11.680;2023-09-30T04:39:47;12.80;99.90
8539;DHT22;4307;53.868;11.680;2023-09-30T04:42:14;12.80;99.90
8539;DHT22;4307;53.868;11.680;2023-09-30T04:44:43;12.80;99.90
8539;DHT22;4307;53.868;11.680;2023-09-30T04:47:09;12.80;99.90
8539;DHT22;4307;53.868;11.680;2023-09-30T04:49:37;12.80;99.90
8539;DHT22;4307;53.868;11.680;2023-09-30T04:52:04;12.80;99.90
8539;DHT22;4307;53.868;11.680;2023-09-30T04:54:32;12.80;99.90
8539;DHT22;4307;53.868;11.680;2023-09-30T04:57:00;12.80;99.90
8539;DHT22;4307;53.868;11.680;2023-09-30T04:59:27;12.80;99.90
8539;DHT22;4307;53.868;11.680;2023-09-30T05:01:55;12.80;99.90
8539;DHT22;4307;53.868;11.680;2023-09-30T05:04:21;12.80;99.90
8539;DHT22;4307;53.868;11.680;2023-09-30T05:06:50;12.80;99.90
8539;DHT22;4307;53.868;11.680;2023-09-30T05:09:17;12.80;99.90
8539;DHT22;4307;53.868;11.680;2023-09-30T05:11:44;12.80;99.90
8539;DHT22;4307;53.868;11.680;2023-09-30T05:14:10;12.90;99.90
8539;DHT22;4307;53.868;11.680;2023-09-30T05:16:38;12.90;99.90
8539;DHT22;4307;53.868;11.680;2023-09-30T05:19:05;12.90;99.90
8539;DHT22;4307;53.868;11.680;2023-09-30T05:21:32;12.80;99.90
8539;DHT22;4307;53.868;11.680;2023-09-30T05:23:59;12.90;99.90
8539;DHT22;4307;53.868;11.680;2023-09-30T05:26:27;12.90;99.90
8539;DHT22;4307;53.868;11.680;2023-09-30T05:28:54;12.90;99.90
8539;DHT22;4307;53.868;11.680;2023-09-30T05:31:21;12.90;99.90
8539;DHT22;4307;53.868;11.680;2023-09-30T05:33:47;12.90;99.90
8539;DHT22;4307;53.868;11.680;2023-09-30T05:36:14;12.90;99.90
8539;DHT22;4307;53.868;11.680;2023-09-30T05:38:41;12.90;99.90
8539;DHT22;4307;53.868;11.680;2023-09-30T05:41:09;12.90;99.90
8539;DHT22;4307;53.868;11.680;2023-09-30T05:43:37;12.90;99.90
8539;DHT22;4307;53.868;11.680;2023-09-30T05:46:03;13.00;99.90
8539;DHT22;4307;53.868;11.680;2023-09-30T05:48:30;13.00;99.90
8539;DHT22;4307;53.868;11.680;2023-09-30T05:50:57;13.00;99.90
8539;DHT22;4307;53.868;11.680;2023-09-30T05:53:24;13.10;99.90
8539;DHT22;4307;53.868;11.680;2023-09-30T05:55:50;13.10;99.90
8539;DHT22;4307;53.868;11.680;2023-09-30T05:58:18;13.20;99.90
8539;DHT22;4307;53.868;11.680;2023-09-30T06:00:46;13.30;99.90
8539;DHT22;4307;53.868;11.680;2023-09-30T06:03:12;13.30;99.90
8539;DHT22;4307;53.868;11.680;2023-09-30T06:05:40;13.40;99.90
8539;DHT22;4307;53.868;11.680;2023-09-30T06:08:08;13.40;99.90
8539;DHT22;4307;53.868;11.680;2023-09-30T06:10:36;13.50;99.90
8539;DHT22;4307;53.868;11.680;2023-09-30T06:13:04;13.50;99.90
8539;DHT22;4307;53.868;11.680;2023-09-30T06:15:32;13.60;99.90
8539;DHT22;4307;53.868;11.680;2023-09-30T06:17:59;13.60;99.90
8539;DHT22;4307;53.868;11.680;2023-09-30T06:20:26;13.60;99.90
8539;DHT22;4307;53.868;11.680;2023-09-30T06:22:56;13.70;99.90
8539;DHT22;4307;53.868;11.680;2023-09-30T06:25:23;13.70;99.90
8539;DHT22;4307;53.868;11.680;2023-09-30T06:27:50;13.70;99.90
8539;DHT22;4307;53.868;11.680;2023-09-30T06:30:17;13.70;99.90
8539;DHT22;4307;53.868;11.680;2023-09-30T06:32:46;13.80;99.90
8539;DHT22;4307;53.868;11.680;2023-09-30T06:35:13;13.80;99.90
8539;DHT22;4307;53.868;11.680;2023-09-30T06:37:40;13.80;99.90
8539;DHT22;4307;53.868;11.680;2023-09-30T06:40:08;13.90;99.90
8539;DHT22;4307;53.868;11.680;2023-09-30T06:42:37;13.90;99.90
8539;DHT22;4307;53.868;11.680;2023-09-30T06:45:06;13.90;99.90
8539;DHT22;4307;53.868;11.680;2023-09-30T06:47:33;13.90;99.90
8539;DHT22;4307;53.868;11.680;2023-09-30T06:50:01;13.90;99.90
8539;DHT22;4307;53.868;11.680;2023-09-30T06:52:33;13.90;99.90
8539;DHT22;4307;53.868;11.680;2023-09-30T06:55:00;13.90;99.90
8539;DHT22;4307;53.868;11.680;2023-09-30T06:57:27;14.00;99.90
8539;DHT22;4307;53.868;11.680;2023-09-30T06:59:54;14.00;99.90
8539;DHT22;4307;53.868;11.680;2023-09-30T07:02:21;14.00;99.90
8539;DHT22;4307;53.868;11.680;2023-09-30T07:04:49;14.00;99.90
8539;DHT22;4307;53.868;11.680;2023-09-30T07:07:17;14.00;99.90
8539;DHT22;4307;53.868;11.680;2023-09-30T07:09:44;14.10;99.90
8539;DHT22;4307;53.868;11.680;2023-09-30T07:12:11;14.10;99.90
8539;DHT22;4307;53.868;11.680;2023-09-30T07:14:37;14.20;99.90
8539;DHT22;4307;53.868;11.680;2023-09-30T07:17:04;14.20;99.90
8539;DHT22;4307;53.868;11.680;2023-09-30T07:19:31;14.20;99.90
8539;DHT22;4307;53.868;11.680;2023-09-30T07:21:58;14.30;99.90
8539;DHT22;4307;53.868;11.680;2023-09-30T07:24:26;14.40;99.90
8539;DHT22;4307;53.868;11.680;2023-09-30T07:26:52;14.60;99.90
8539;DHT22;4307;53.868;11.680;2023-09-30T07:29:20;14.70;99.90
8539;DHT22;4307;53.868;11.680;2023-09-30T07:31:47;14.90;99.90
8539;DHT22;4307;53.868;11.680;2023-09-30T07:34:13;15.10;99.90
8539;DHT22;4307;53.868;11.680;2023-09-30T07:36:40;15.30;99.90
8539;DHT22;4307;53.868;11.680;2023-09-30T07:39:07;15.50;99.90
8539;DHT22;4307;53.868;11.680;2023-09-30T07:41:36;15.50;99.90
8539;DHT22;4307;53.868;11.680;2023-09-30T07:44:03;15.60;99.90
8539;DHT22;4307;53.868;11.680;2023-09-30T07:46:30;15.60;99.90
8539;DHT22;4307;53.868;11.680;2023-09-30T07:48:57;15.80;99.90
8539;DHT22;4307;53.868;11.680;2023-09-30T07:51:24;16.00;99.90
8539;DHT22;4307;53.868;11.680;2023-09-30T07:53:51;16.30;99.90
8539;DHT22;4307;53.868;11.680;2023-09-30T07:56:18;16.60;99.90
8539;DHT22;4307;53.868;11.680;2023-09-30T07:58:46;16.70;99.90
8539;DHT22;4307;53.868;11.680;2023-09-30T08:01:12;16.70;99.90
8539;DHT22;4307;53.868;11.680;2023-09-30T08:03:39;16.80;99.90
8539;DHT22;4307;53.868;11.680;2023-09-30T08:06:07;16.90;99.90
8539;DHT22;4307;53.868;11.680;2023-09-30T08:08:35;17.10;99.90
8539;DHT22;4307;53.868;11.680;2023-09-30T08:11:02;17.20;99.90
8539;DHT22;4307;53.868;11.680;2023-09-30T08:13:30;17.40;99.90
8539;DHT22;4307;53.868;11.680;2023-09-30T08:15:59;17.70;99.90
8539;DHT22;4307;53.868;11.680;2023-09-30T08:18:25;18.00;99.90
8539;DHT22;4307;53.868;11.680;2023-09-30T08:20:52;18.20;99.90
8539;DHT22;4307;53.868;11.680;2023-09-30T08:23:19;18.30;99.90
8539;DHT22;4307;53.868;11.680;2023-09-30T08:25:46;18.50;99.90
8539;DHT22;4307;53.868;11.680;2023-09-30T08:28:13;18.80;99.90
8539;DHT22;4307;53.868;11.680;2023-09-30T08:30:39;18.90;99.90
8539;DHT22;4307;53.868;11.680;2023-09-30T08:33:07;19.00;99.90
8539;DHT22;4307;53.868;11.680;2023-09-30T08:35:35;19.20;99.90
8539;DHT22;4307;53.868;11.680;2023-09-30T08:38:03;19.40;99.90
8539;DHT22;4307;53.868;11.680;2023-09-30T08:40:31;19.50;99.90
8539;DHT22;4307;53.868;11.680;2023-09-30T08:42:57;19.70;99.90
8539;DHT22;4307;53.868;11.680;2023-09-30T08:45:28;19.90;99.90
8539;DHT22;4307;53.868;11.680;2023-09-30T08:47:54;20.10;99.90
8539;DHT22;4307;53.868;11.680;2023-09-30T08:50:23;20.30;99.90
8539;DHT22;4307;53.868;11.680;2023-09-30T08:52:50;20.40;99.90
8539;DHT22;4307;53.868;11.680;2023-09-30T08:55:18;20.40;99.90
8539;DHT22;4307;53.868;11.680;2023-09-30T08:57:45;20.40;99.90
8539;DHT22;4307;53.868;11.680;2023-09-30T09:00:13;20.40;99.90
8539;DHT22;4307;53.868;11.680;2023-09-30T09:02:40;20.50;99.90
8539;DHT22;4307;53.868;11.680;2023-09-30T09:05:07;20.60;99.90
8539;DHT22;4307;53.868;11.680;2023-09-30T09:07:36;20.80;99.90
8539;DHT22;4307;53.868;11.680;2023-09-30T09:10:03;20.90;99.90
8539;DHT22;4307;53.868;11.680;2023-09-30T09:12:31;21.00;99.90
8539;DHT22;4307;53.868;11.680;2023-09-30T09:14:57;21.20;99.90
8539;DHT22;4307;53.868;11.680;2023-09-30T09:17:40;21.30;99.90
8539;DHT22;4307;53.868;11.680;2023-09-30T09:20:08;21.40;99.90
8539;DHT22;4307;53.868;11.680;2023-09-30T09:22:41;21.50;99.90
8539;DHT22;4307;53.868;11.680;2023-09-30T09:25:08;21.70;99.90
8539;DHT22;4307;53.868;11.680;2023-09-30T09:27:36;21.90;99.90
8539;DHT22;4307;53.868;11.680;2023-09-30T09:30:16;22.00;99.90
8539;DHT22;4307;53.868;11.680;2023-09-30T09:32:59;22.20;99.90
8539;DHT22;4307;53.868;11.680;2023-09-30T09:35:28;22.30;99.90
8539;DHT22;4307;53.868;11.680;2023-09-30T09:37:58;22.40;99.90
8539;DHT22;4307;53.868;11.680;2023-09-30T09:40:26;22.50;99.90
8539;DHT22;4307;53.868;11.680;2023-09-30T09:42:54;22.40;99.90
8539;DHT22;4307;53.868;11.680;2023-09-30T09:45:22;22.50;99.90
8539;DHT22;4307;53.868;11.680;2023-09-30T09:47:49;22.60;99.90
8539;DHT22;4307;53.868;11.680;2023-09-30T09:50:17;22.70;99.90
8539;DHT22;4307;53.868;11.680;2023-09-30T09:52:44;22.70;99.90
8539;DHT22;4307;53.868;11.680;2023-09-30T09:55:15;22.80;99.90
8539;DHT22;4307;53.868;11.680;2023-09-30T09:57:43;22.70;99.90
8539;DHT22;4307;53.868;11.680;2023-09-30T10:00:12;22.60;99.90
8539;DHT22;4307;53.868;11.680;2023-09-30T10:02:40;22.50;99.90
8539;DHT22;4307;53.868;11.680;2023-09-30T10:05:07;22.40;99.90
8539;DHT22;4307;53.868;11.680;2023-09-30T10:07:37;22.20;99.90
8539;DHT22;4307;53.868;11.680;2023-09-30T10:10:16;22.20;99.90
8539;DHT22;4307;53.868;11.680;2023-09-30T10:12:45;22.20;99.90
8539;DHT22;4307;53.868;11.680;2023-09-30T10:15:34;22.10;99.90
8539;DHT22;4307;53.868;11.680;2023-09-30T10:18:03;22.20;99.90
8539;DHT22;4307;53.868;11.680;2023-09-30T10:20:31;22.30;99.90
8539;DHT22;4307;53.868;11.680;2023-09-30T10:23:20;22.50;99.90
8539;DHT22;4307;53.868;11.680;2023-09-30T10:25:47;22.80;99.90
8539;DHT22;4307;53.868;11.680;2023-09-30T10:28:36;22.80;99.90
8539;DHT22;4307;53.868;11.680;2023-09-30T10:31:11;23.10;99.90
8539;DHT22;4307;53.868;11.680;2023-09-30T10:36:40;23.10;99.90
8539;DHT22;4307;53.868;11.680;2023-09-30T10:39:11;22.80;99.90
8539;DHT22;4307;53.868;11.680;2023-09-30T10:41:49;22.70;99.90
8539;DHT22;4307;53.868;11.680;2023-09-30T10:44:36;22.50;99.90
8539;DHT22;4307;53.868;11.680;2023-09-30T10:50:50;22.50;99.90
8539;DHT22;4307;53.868;11.680;2023-09-30T10:53:17;22.60;99.90
8539;DHT22;4307;53.868;11.680;2023-09-30T10:55:45;22.70;99.90
8539;DHT22;4307;53.868;11.680;2023-09-30T10:58:12;22.80;99.60
8539;DHT22;4307;53.868;11.680;2023-09-30T11:00:52;22.80;99.50
8539;DHT22;4307;53.868;11.680;2023-09-30T11:03:19;22.80;99.20
8539;DHT22;4307;53.868;11.680;2023-09-30T11:05:47;22.80;99.10
8539;DHT22;4307;53.868;11.680;2023-09-30T11:08:16;22.70;99.10
8539;DHT22;4307;53.868;11.680;2023-09-30T11:10:47;22.80;99.10
8539;DHT22;4307;53.868;11.680;2023-09-30T11:13:14;22.90;99.00
8539;DHT22;4307;53.868;11.680;2023-09-30T11:15:42;23.10;98.80
8539;DHT22;4307;53.868;11.680;2023-09-30T11:18:16;23.20;98.40
8539;DHT22;4307;53.868;11.680;2023-09-30T11:20:44;23.30;98.10
8539;DHT22;4307;53.868;11.680;2023-09-30T11:23:11;23.60;98.10
8539;DHT22;4307;53.868;11.680;2023-09-30T11:25:38;23.70;97.50
8539;DHT22;4307;53.868;11.680;2023-09-30T11:28:13;23.80;96.90
8539;DHT22;4307;53.868;11.680;2023-09-30T11:30:54;23.80;96.60
8539;DHT22;4307;53.868;11.680;2023-09-30T11:33:21;23.90;96.30
8539;DHT22;4307;53.868;11.680;2023-09-30T11:35:56;24.00;96.30
8539;DHT22;4307;53.868;11.680;2023-09-30T11:38:24;24.10;95.70
8539;DHT22;4307;53.868;11.680;2023-09-30T11:41:00;24.10;95.40
8539;DHT22;4307;53.868;11.680;2023-09-30T11:43:30;24.10;95.10
8539;DHT22;4307;53.868;11.680;2023-09-30T11:46:08;24.00;95.00
8539;DHT22;4307;53.868;11.680;2023-09-30T11:48:35;24.00;94.70
8539;DHT22;4307;53.868;11.680;2023-09-30T11:51:03;24.00;94.70
8539;DHT22;4307;53.868;11.680;2023-09-30T11:53:29;24.00;94.60
8539;DHT22;4307;53.868;11.680;2023-09-30T11:55:57;24.00;94.40
8539;DHT22;4307;53.868;11.680;2023-09-30T11:58:26;24.00;94.30
8539;DHT22;4307;53.868;11.680;2023-09-30T12:00:58;24.00;94.00
8539;DHT22;4307;53.868;11.680;2023-09-30T12:03:27;24.00;93.70
8539;DHT22;4307;53.868;11.680;2023-09-30T12:05:54;24.00;93.50
8539;DHT22;4307;53.868;11.680;2023-09-30T12:08:21;23.90;93.50
8539;DHT22;4307;53.868;11.680;2023-09-30T12:10:48;23.80;93.20
8539;DHT22;4307;53.868;11.680;2023-09-30T12:13:15;23.70;93.10
8539;DHT22;4307;53.868;11.680;2023-09-30T12:15:42;23.70;93.10
8539;DHT22;4307;53.868;11.680;2023-09-30T12:18:09;23.70;93.20
8539;DHT22;4307;53.868;11.680;2023-09-30T12:20:40;23.80;93.10
8539;DHT22;4307;53.868;11.680;2023-09-30T12:23:09;23.80;92.90
8539;DHT22;4307;53.868;11.680;2023-09-30T12:25:36;23.80;92.90
8539;DHT22;4307;53.868;11.680;2023-09-30T12:28:03;23.80;92.90
8539;DHT22;4307;53.868;11.680;2023-09-30T12:30:31;23.80;92.90
8539;DHT22;4307;53.868;11.680;2023-09-30T12:32:58;23.80;92.40
8539;DHT22;4307;53.868;11.680;2023-09-30T12:35:24;23.50;92.30
8539;DHT22;4307;53.868;11.680;2023-09-30T12:37:52;23.20;92.40
8539;DHT22;4307;53.868;11.680;2023-09-30T12:40:19;23.00;92.50
8539;DHT22;4307;53.868;11.680;2023-09-30T12:42:46;22.80;92.70
8539;DHT22;4307;53.868;11.680;2023-09-30T12:45:12;22.80;92.80
8539;DHT22;4307;53.868;11.680;2023-09-30T12:47:39;22.80;93.00
8539;DHT22;4307;53.868;11.680;2023-09-30T12:50:06;22.80;93.10
8539;DHT22;4307;53.868;11.680;2023-09-30T12:52:35;22.70;93.20
8539;DHT22;4307;53.868;11.680;2023-09-30T12:55:03;22.70;93.20
8539;DHT22;4307;53.868;11.680;2023-09-30T12:57:30;22.60;93.30
8539;DHT22;4307;53.868;11.680;2023-09-30T12:59:57;22.70;93.40
8539;DHT22;4307;53.868;11.680;2023-09-30T13:02:23;22.80;93.40
8539;DHT22;4307;53.868;11.680;2023-09-30T13:04:50;22.80;93.20
8539;DHT22;4307;53.868;11.680;2023-09-30T13:07:16;22.80;93.20
8539;DHT22;4307;53.868;11.680;2023-09-30T13:09:43;22.70;93.00
8539;DHT22;4307;53.868;11.680;2023-09-30T13:12:11;22.50;92.90
8539;DHT22;4307;53.868;11.680;2023-09-30T13:14:39;22.30;92.80
8539;DHT22;4307;53.868;11.680;2023-09-30T13:17:05;22.20;92.80
8539;DHT22;4307;53.868;11.680;2023-09-30T13:19:33;22.20;93.00
8539;DHT22;4307;53.868;11.680;2023-09-30T13:21:59;22.30;93.10
8539;DHT22;4307;53.868;11.680;2023-09-30T13:24:26;22.50;92.90
8539;DHT22;4307;53.868;11.680;2023-09-30T13:26:53;22.40;92.70
8539;DHT22;4307;53.868;11.680;2023-09-30T13:29:21;22.30;92.80
8539;DHT22;4307;53.868;11.680;2023-09-30T13:31:48;22.20;93.00
8539;DHT22;4307;53.868;11.680;2023-09-30T13:34:14;22.30;93.00
8539;DHT22;4307;53.868;11.680;2023-09-30T13:36:41;22.30;92.90
8539;DHT22;4307;53.868;11.680;2023-09-30T13:39:08;22.40;92.90
8539;DHT22;4307;53.868;11.680;2023-09-30T13:41:38;22.30;92.90
8539;DHT22;4307;53.868;11.680;2023-09-30T13:44:05;22.20;93.10
8539;DHT22;4307;53.868;11.680;2023-09-30T13:46:33;22.30;93.40
8539;DHT22;4307;53.868;11.680;2023-09-30T13:49:00;22.60;93.30
8539;DHT22;4307;53.868;11.680;2023-09-30T13:51:26;22.80;93.10
8539;DHT22;4307;53.868;11.680;2023-09-30T13:53:53;22.80;93.00
8539;DHT22;4307;53.868;11.680;2023-09-30T13:56:20;22.90;93.20
8539;DHT22;4307;53.868;11.680;2023-09-30T13:58:47;22.80;93.00
8539;DHT22;4307;53.868;11.680;2023-09-30T14:01:14;22.70;93.00
8539;DHT22;4307;53.868;11.680;2023-09-30T14:03:42;22.40;93.20
8539;DHT22;4307;53.868;11.680;2023-09-30T14:06:11;22.40;93.40
8539;DHT22;4307;53.868;11.680;2023-09-30T14:08:38;22.40;93.40
8539;DHT22;4307;53.868;11.680;2023-09-30T14:11:05;22.40;93.40
8539;DHT22;4307;53.868;11.680;2023-09-30T14:13:31;22.40;93.40
8539;DHT22;4307;53.868;11.680;2023-09-30T14:15:58;22.30;93.40
8539;DHT22;4307;53.868;11.680;2023-09-30T14:18:25;22.10;93.30
8539;DHT22;4307;53.868;11.680;2023-09-30T14:20:53;21.90;93.30
8539;DHT22;4307;53.868;11.680;2023-09-30T14:23:20;21.80;93.40
8539;DHT22;4307;53.868;11.680;2023-09-30T14:25:47;21.60;93.40
8539;DHT22;4307;53.868;11.680;2023-09-30T14:28:13;21.50;93.60
8539;DHT22;4307;53.868;11.680;2023-09-30T14:30:40;21.40;93.60
8539;DHT22;4307;53.868;11.680;2023-09-30T14:33:07;21.40;93.80
8539;DHT22;4307;53.868;11.680;2023-09-30T14:35:33;21.40;93.90
8539;DHT22;4307;53.868;11.680;2023-09-30T14:38:02;21.40;93.90
8539;DHT22;4307;53.868;11.680;2023-09-30T14:40:30;21.30;93.80
8539;DHT22;4307;53.868;11.680;2023-09-30T14:42:57;21.30;93.80
8539;DHT22;4307;53.868;11.680;2023-09-30T14:45:23;21.10;93.80
8539;DHT22;4307;53.868;11.680;2023-09-30T14:47:50;21.10;94.00
8539;DHT22;4307;53.868;11.680;2023-09-30T14:50:16;21.00;93.90
8539;DHT22;4307;53.868;11.680;2023-09-30T14:52:43;20.90;93.90
8539;DHT22;4307;53.868;11.680;2023-09-30T14:55:11;21.00;94.00
8539;DHT22;4307;53.868;11.680;2023-09-30T14:57:38;21.00;94.10
8539;DHT22;4307;53.868;11.680;2023-09-30T15:00:05;20.90;93.90
8539;DHT22;4307;53.868;11.680;2023-09-30T15:02:32;20.90;94.20
8539;DHT22;4307;53.868;11.680;2023-09-30T15:04:59;20.80;93.90
8539;DHT22;4307;53.868;11.680;2023-09-30T15:07:26;20.70;93.90
8539;DHT22;4307;53.868;11.680;2023-09-30T15:09:52;20.70;94.00
8539;DHT22;4307;53.868;11.680;2023-09-30T15:12:21;20.70;94.00
8539;DHT22;4307;53.868;11.680;2023-09-30T15:14:47;20.60;94.00
8539;DHT22;4307;53.868;11.680;2023-09-30T15:17:14;20.60;94.10
8539;DHT22;4307;53.868;11.680;2023-09-30T15:19:41;20.50;94.10
8539;DHT22;4307;53.868;11.680;2023-09-30T15:22:08;20.50;94.20
8539;DHT22;4307;53.868;11.680;2023-09-30T15:24:35;20.40;94.10
8539;DHT22;4307;53.868;11.680;2023-09-30T15:27:02;20.30;94.10
8539;DHT22;4307;53.868;11.680;2023-09-30T15:29:29;20.30;94.10
8539;DHT22;4307;53.868;11.680;2023-09-30T15:31:56;20.20;94.10
8539;DHT22;4307;53.868;11.680;2023-09-30T15:34:23;20.10;94.20
8539;DHT22;4307;53.868;11.680;2023-09-30T15:36:49;20.00;94.20
8539;DHT22;4307;53.868;11.680;2023-09-30T15:39:16;20.00;94.30
8539;DHT22;4307;53.868;11.680;2023-09-30T15:41:43;19.90;94.40
8539;DHT22;4307;53.868;11.680;2023-09-30T15:44:10;19.80;94.50
8539;DHT22;4307;53.868;11.680;2023-09-30T15:46:38;19.70;94.60
8539;DHT22;4307;53.868;11.680;2023-09-30T15:49:04;19.70;94.80
8539;DHT22;4307;53.868;11.680;2023-09-30T15:51:31;19.70;94.90
8539;DHT22;4307;53.868;11.680;2023-09-30T15:53:58;19.60;95.00
8539;DHT22;4307;53.868;11.680;2023-09-30T15:56:24;19.60;95.10